sensor_id;sensor_type;location;lat;lon;timestamp;P1;durP1;ratioP1;P2;durP2;ratioP2
23317;SDS011;11831;55.918;37.746;2023-07-24T00:02:24;5.00;;;3.30;;
23317;SDS011;11831;55.918;37.746;2023-07-24T00:04:51;4.30;;;3.65;;
23317;SDS011;11831;55.918;37.746;2023-07-24T00:07:17;5.47;;;3.75;;
23317;SDS011;11831;55.918;37.746;2023-07-24T00:09:44;10.15;;;3.60;;
23317;SDS011;11831;55.918;37.746;2023-07-24T00:12:10;7.68;;;3.97;;
23317;SDS011;11831;55.918;37.746;2023-07-24T00:14:36;5.03;;;3.72;;
23317;SDS011;11831;55.918;37.746;2023-07-24T00:17:03;7.07;;;3.62;;
23317;SDS011;11831;55.918;37.746;2023-07-24T00:19:30;5.10;;;3.65;;
23317;SDS011;11831;55.918;37.746;2023-07-24T00:21:56;6.55;;;3.70;;
23317;SDS011;11831;55.918;37.746;2023-07-24T00:24:22;6.65;;;3.33;;
23317;SDS011;11831;55.918;37.746;2023-07-24T00:26:49;3.90;;;3.40;;
23317;SDS011;11831;55.918;37.746;2023-07-24T00:29:15;7.10;;;3.70;;
23317;SDS011;11831;55.918;37.746;2023-07-24T00:31:42;7.37;;;3.53;;
23317;SDS011;11831;55.918;37.746;2023-07-24T00:34:09;4.22;;;3.30;;
23317;SDS011;11831;55.918;37.746;2023-07-24T00:36:35;9.02;;;3.62;;
23317;SDS011;11831;55.918;37.746;2023-07-24T00:39:01;6.35;;;3.60;;
23317;SDS011;11831;55.918;37.746;2023-07-24T00:41:29;5.70;;;3.72;;
23317;SDS011;11831;55.918;37.746;2023-07-24T00:43:56;4.72;;;3.50;;
23317;SDS011;11831;55.918;37.746;2023-07-24T00:46:23;6.12;;;3.35;;
23317;SDS011;11831;55.918;37.746;2023-07-24T00:48:50;5.55;;;3.67;;
23317;SDS011;11831;55.918;37.746;2023-07-24T00:51:18;6.45;;;3.90;;
23317;SDS011;11831;55.918;37.746;2023-07-24T00:53:44;5.55;;;3.72;;
23317;SDS011;11831;55.918;37.746;2023-07-24T00:56:13;7.53;;;3.22;;
23317;SDS011;11831;55.918;37.746;2023-07-24T00:58:40;3.75;;;3.30;;
23317;SDS011;11831;55.918;37.746;2023-07-24T01:01:06;5.80;;;3.30;;
23317;SDS011;11831;55.918;37.746;2023-07-24T01:03:34;7.60;;;3.22;;
23317;SDS011;11831;55.918;37.746;2023-07-24T01:06:03;6.62;;;4.50;;
23317;SDS011;11831;55.918;37.746;2023-07-24T01:08:30;6.35;;;5.50;;
23317;SDS011;11831;55.918;37.746;2023-07-24T01:10:57;5.12;;;4.18;;
23317;SDS011;11831;55.918;37.746;2023-07-24T01:13:30;8.88;;;4.12;;
23317;SDS011;11831;55.918;37.746;2023-07-24T01:16:04;4.25;;;3.80;;
23317;SDS011;11831;55.918;37.746;2023-07-24T01:18:39;4.05;;;3.47;;
23317;SDS011;11831;55.918;37.746;2023-07-24T01:21:07;3.87;;;3.30;;
23317;SDS011;11831;55.918;37.746;2023-07-24T01:26:19;4.18;;;3.42;;
23317;SDS011;11831;55.918;37.746;2023-07-24T01:31:17;5.45;;;3.55;;
23317;SDS011;11831;55.918;37.746;2023-07-24T01:33:44;4.28;;;3.40;;
23317;SDS011;11831;55.918;37.746;2023-07-24T01:36:10;4.90;;;2.95;;
23317;SDS011;11831;55.918;37.746;2023-07-24T01:38:40;5.43;;;3.97;;
23317;SDS011;11831;55.918;37.746;2023-07-24T01:41:07;5.47;;;3.87;;
23317;SDS011;11831;55.918;37.746;2023-07-24T01:43:35;4.05;;;3.20;;
23317;SDS011;11831;55.918;37.746;2023-07-24T01:46:01;6.30;;;3.90;;
23317;SDS011;11831;55.918;37.746;2023-07-24T01:48:27;4.82;;;3.47;;
23317;SDS011;11831;55.918;37.746;2023-07-24T01:50:54;4.57;;;3.45;;
23317;SDS011;11831;55.918;37.746;2023-07-24T01:53:20;5.90;;;3.75;;
23317;SDS011;11831;55.918;37.746;2023-07-24T01:55:47;6.53;;;3.20;;
23317;SDS011;11831;55.918;37.746;2023-07-24T01:58:13;3.95;;;3.50;;
23317;SDS011;11831;55.918;37.746;2023-07-24T02:00:40;7.32;;;3.47;;
23317;SDS011;11831;55.918;37.746;2023-07-24T02:03:06;6.47;;;3.25;;
23317;SDS011;11831;55.918;37.746;2023-07-24T02:05:33;6.15;;;3.50;;
23317;SDS011;11831;55.918;37.746;2023-07-24T02:08:00;6.30;;;3.80;;
23317;SDS011;11831;55.918;37.746;2023-07-24T02:10:26;4.87;;;3.55;;
23317;SDS011;11831;55.918;37.746;2023-07-24T02:12:53;5.85;;;3.60;;
23317;SDS011;11831;55.918;37.746;2023-07-24T02:15:19;5.10;;;3.85;;
23317;SDS011;11831;55.918;37.746;2023-07-24T02:17:46;3.53;;;3.08;;
23317;SDS011;11831;55.918;37.746;2023-07-24T02:20:12;4.05;;;3.58;;
23317;SDS011;11831;55.918;37.746;2023-07-24T02:22:42;5.53;;;3.22;;
23317;SDS011;11831;55.918;37.746;2023-07-24T02:25:09;7.20;;;3.72;;
23317;SDS011;11831;55.918;37.746;2023-07-24T02:27:35;9.73;;;3.40;;
23317;SDS011;11831;55.918;37.746;2023-07-24T02:30:02;5.68;;;3.50;;
23317;SDS011;11831;55.918;37.746;2023-07-24T02:32:30;7.20;;;3.75;;
23317;SDS011;11831;55.918;37.746;2023-07-24T02:34:58;4.05;;;3.10;;
23317;SDS011;11831;55.918;37.746;2023-07-24T02:37:24;4.90;;;3.50;;
23317;SDS011;11831;55.918;37.746;2023-07-24T02:39:51;8.88;;;3.67;;
23317;SDS011;11831;55.918;37.746;2023-07-24T02:42:18;3.97;;;3.47;;
23317;SDS011;11831;55.918;37.746;2023-07-24T02:44:45;4.45;;;3.10;;
23317;SDS011;11831;55.918;37.746;2023-07-24T02:47:11;4.30;;;3.40;;
23317;SDS011;11831;55.918;37.746;2023-07-24T02:49:38;5.30;;;3.65;;
23317;SDS011;11831;55.918;37.746;2023-07-24T02:52:04;6.68;;;3.67;;
23317;SDS011;11831;55.918;37.746;2023-07-24T02:54:31;7.70;;;3.55;;
23317;SDS011;11831;55.918;37.746;2023-07-24T02:56:58;3.65;;;3.05;;
23317;SDS011;11831;55.918;37.746;2023-07-24T02:59:24;5.82;;;3.28;;
23317;SDS011;11831;55.918;37.746;2023-07-24T03:01:50;3.58;;;3.05;;
23317;SDS011;11831;55.918;37.746;2023-07-24T03:04:17;4.32;;;3.30;;
23317;SDS011;11831;55.918;37.746;2023-07-24T03:06:43;6.10;;;3.35;;
23317;SDS011;11831;55.918;37.746;2023-07-24T03:09:10;4.87;;;3.20;;
23317;SDS011;11831;55.918;37.746;2023-07-24T03:11:36;4.07;;;2.90;;
23317;SDS011;11831;55.918;37.746;2023-07-24T03:14:02;4.85;;;3.00;;
23317;SDS011;11831;55.918;37.746;2023-07-24T03:16:29;7.87;;;3.40;;
23317;SDS011;11831;55.918;37.746;2023-07-24T03:18:55;5.45;;;2.83;;
23317;SDS011;11831;55.918;37.746;2023-07-24T03:21:22;6.03;;;3.75;;
23317;SDS011;11831;55.918;37.746;2023-07-24T03:23:48;4.28;;;3.62;;
23317;SDS011;11831;55.918;37.746;2023-07-24T03:26:15;6.45;;;3.60;;
23317;SDS011;11831;55.918;37.746;2023-07-24T03:28:41;5.90;;;3.60;;
23317;SDS011;11831;55.918;37.746;2023-07-24T03:31:07;5.53;;;3.30;;
23317;SDS011;11831;55.918;37.746;2023-07-24T03:33:34;4.82;;;3.03;;
23317;SDS011;11831;55.918;37.746;2023-07-24T03:36:01;5.05;;;3.22;;
23317;SDS011;11831;55.918;37.746;2023-07-24T03:38:27;3.03;;;2.70;;
23317;SDS011;11831;55.918;37.746;2023-07-24T03:40:53;4.82;;;2.72;;
23317;SDS011;11831;55.918;37.746;2023-07-24T03:43:20;3.62;;;2.87;;
23317;SDS011;11831;55.918;37.746;2023-07-24T03:45:46;3.53;;;2.80;;
23317;SDS011;11831;55.918;37.746;2023-07-24T03:48:13;3.05;;;2.50;;
23317;SDS011;11831;55.918;37.746;2023-07-24T03:50:40;3.40;;;2.60;;
23317;SDS011;11831;55.918;37.746;2023-07-24T03:53:07;6.53;;;3.08;;
23317;SDS011;11831;55.918;37.746;2023-07-24T03:55:33;4.85;;;3.05;;
23317;SDS011;11831;55.918;37.746;2023-07-24T03:58:00;4.25;;;3.17;;
23317;SDS011;11831;55.918;37.746;2023-07-24T04:00:26;5.40;;;2.90;;
23317;SDS011;11831;55.918;37.746;2023-07-24T04:02:52;6.35;;;2.80;;
23317;SDS011;11831;55.918;37.746;2023-07-24T04:05:19;4.37;;;2.78;;
23317;SDS011;11831;55.918;37.746;2023-07-24T04:07:45;6.72;;;3.47;;
23317;SDS011;11831;55.918;37.746;2023-07-24T04:10:12;4.30;;;2.83;;
23317;SDS011;11831;55.918;37.746;2023-07-24T04:12:38;4.32;;;3.12;;
23317;SDS011;11831;55.918;37.746;2023-07-24T04:15:05;5.60;;;3.03;;
23317;SDS011;11831;55.918;37.746;2023-07-24T04:17:32;7.10;;;3.22;;
23317;SDS011;11831;55.918;37.746;2023-07-24T04:19:58;5.07;;;3.10;;
23317;SDS011;11831;55.918;37.746;2023-07-24T04:22:26;5.40;;;3.00;;
23317;SDS011;11831;55.918;37.746;2023-07-24T04:24:52;3.45;;;3.10;;
23317;SDS011;11831;55.918;37.746;2023-07-24T04:27:18;6.05;;;2.97;;
23317;SDS011;11831;55.918;37.746;2023-07-24T04:29:45;5.78;;;3.28;;
23317;SDS011;11831;55.918;37.746;2023-07-24T04:32:11;5.07;;;2.95;;
23317;SDS011;11831;55.918;37.746;2023-07-24T04:34:38;3.70;;;2.85;;
23317;SDS011;11831;55.918;37.746;2023-07-24T04:37:05;7.68;;;3.00;;
23317;SDS011;11831;55.918;37.746;2023-07-24T04:39:31;5.87;;;3.20;;
23317;SDS011;11831;55.918;37.746;2023-07-24T04:41:59;3.72;;;2.97;;
23317;SDS011;11831;55.918;37.746;2023-07-24T04:44:25;6.68;;;2.80;;
23317;SDS011;11831;55.918;37.746;2023-07-24T04:46:52;3.20;;;2.83;;
23317;SDS011;11831;55.918;37.746;2023-07-24T04:49:18;6.62;;;2.92;;
23317;SDS011;11831;55.918;37.746;2023-07-24T04:51:44;5.50;;;2.92;;
23317;SDS011;11831;55.918;37.746;2023-07-24T04:54:11;4.70;;;3.25;;
23317;SDS011;11831;55.918;37.746;2023-07-24T04:56:37;5.10;;;2.97;;
23317;SDS011;11831;55.918;37.746;2023-07-24T04:59:03;5.03;;;3.22;;
23317;SDS011;11831;55.918;37.746;2023-07-24T05:01:30;6.45;;;3.33;;
23317;SDS011;11831;55.918;37.746;2023-07-24T05:03:56;5.28;;;3.28;;
23317;SDS011;11831;55.918;37.746;2023-07-24T05:06:22;3.40;;;3.08;;
23317;SDS011;11831;55.918;37.746;2023-07-24T05:08:49;9.80;;;4.97;;
23317;SDS011;11831;55.918;37.746;2023-07-24T05:11:15;4.75;;;2.80;;
23317;SDS011;11831;55.918;37.746;2023-07-24T05:13:42;6.05;;;2.80;;
23317;SDS011;11831;55.918;37.746;2023-07-24T05:16:08;5.30;;;3.20;;
23317;SDS011;11831;55.918;37.746;2023-07-24T05:18:34;6.53;;;2.90;;
23317;SDS011;11831;55.918;37.746;2023-07-24T05:21:01;6.68;;;3.08;;
23317;SDS011;11831;55.918;37.746;2023-07-24T05:23:27;4.10;;;3.10;;
23317;SDS011;11831;55.918;37.746;2023-07-24T05:26:00;3.78;;;2.78;;
23317;SDS011;11831;55.918;37.746;2023-07-24T05:28:28;4.85;;;2.80;;
23317;SDS011;11831;55.918;37.746;2023-07-24T05:30:55;5.85;;;2.87;;
23317;SDS011;11831;55.918;37.746;2023-07-24T05:33:26;5.05;;;3.15;;
23317;SDS011;11831;55.918;37.746;2023-07-24T05:35:52;4.07;;;3.05;;
23317;SDS011;11831;55.918;37.746;2023-07-24T05:38:24;5.05;;;2.75;;
23317;SDS011;11831;55.918;37.746;2023-07-24T05:40:54;4.20;;;2.78;;
23317;SDS011;11831;55.918;37.746;2023-07-24T05:43:29;6.47;;;3.47;;
23317;SDS011;11831;55.918;37.746;2023-07-24T05:45:57;6.12;;;2.95;;
23317;SDS011;11831;55.918;37.746;2023-07-24T05:48:24;5.87;;;3.25;;
23317;SDS011;11831;55.918;37.746;2023-07-24T05:50:50;8.65;;;3.20;;
23317;SDS011;11831;55.918;37.746;2023-07-24T05:53:17;5.57;;;3.10;;
23317;SDS011;11831;55.918;37.746;2023-07-24T05:55:43;3.78;;;2.90;;
23317;SDS011;11831;55.918;37.746;2023-07-24T05:58:10;4.60;;;3.20;;
23317;SDS011;11831;55.918;37.746;2023-07-24T06:00:37;7.35;;;3.25;;
23317;SDS011;11831;55.918;37.746;2023-07-24T06:03:03;4.28;;;2.47;;
23317;SDS011;11831;55.918;37.746;2023-07-24T06:05:30;4.60;;;2.80;;
23317;SDS011;11831;55.918;37.746;2023-07-24T06:07:56;4.82;;;2.95;;
23317;SDS011;11831;55.918;37.746;2023-07-24T06:10:22;4.80;;;2.85;;
23317;SDS011;11831;55.918;37.746;2023-07-24T06:12:48;5.60;;;2.80;;
23317;SDS011;11831;55.918;37.746;2023-07-24T06:15:15;10.25;;;3.00;;
23317;SDS011;11831;55.918;37.746;2023-07-24T06:17:41;4.70;;;2.80;;
23317;SDS011;11831;55.918;37.746;2023-07-24T06:20:07;4.80;;;2.85;;
23317;SDS011;11831;55.918;37.746;2023-07-24T06:22:34;7.35;;;4.22;;
23317;SDS011;11831;55.918;37.746;2023-07-24T06:25:00;4.72;;;2.60;;
23317;SDS011;11831;55.918;37.746;2023-07-24T06:27:27;5.95;;;2.60;;
23317;SDS011;11831;55.918;37.746;2023-07-24T06:29:53;5.30;;;2.50;;
23317;SDS011;11831;55.918;37.746;2023-07-24T06:32:19;3.85;;;2.35;;
23317;SDS011;11831;55.918;37.746;2023-07-24T06:34:46;2.95;;;2.30;;
23317;SDS011;11831;55.918;37.746;2023-07-24T06:37:12;3.70;;;2.78;;
23317;SDS011;11831;55.918;37.746;2023-07-24T06:39:38;6.35;;;2.90;;
23317;SDS011;11831;55.918;37.746;2023-07-24T06:42:05;5.87;;;2.62;;
23317;SDS011;11831;55.918;37.746;2023-07-24T06:44:31;6.07;;;2.62;;
23317;SDS011;11831;55.918;37.746;2023-07-24T06:46:57;5.07;;;2.80;;
23317;SDS011;11831;55.918;37.746;2023-07-24T06:49:24;4.45;;;2.85;;
23317;SDS011;11831;55.918;37.746;2023-07-24T06:51:50;4.90;;;2.10;;
23317;SDS011;11831;55.918;37.746;2023-07-24T06:54:16;5.15;;;2.90;;
23317;SDS011;11831;55.918;37.746;2023-07-24T06:56:42;4.75;;;2.67;;
23317;SDS011;11831;55.918;37.746;2023-07-24T06:59:09;5.47;;;2.50;;
23317;SDS011;11831;55.918;37.746;2023-07-24T07:01:35;6.28;;;3.03;;
23317;SDS011;11831;55.918;37.746;2023-07-24T07:04:01;3.28;;;2.72;;
23317;SDS011;11831;55.918;37.746;2023-07-24T07:06:28;4.68;;;2.10;;
23317;SDS011;11831;55.918;37.746;2023-07-24T07:08:54;3.15;;;2.00;;
23317;SDS011;11831;55.918;37.746;2023-07-24T07:11:20;4.15;;;2.10;;
23317;SDS011;11831;55.918;37.746;2023-07-24T07:13:47;5.68;;;2.78;;
23317;SDS011;11831;55.918;37.746;2023-07-24T07:16:13;4.78;;;2.40;;
23317;SDS011;11831;55.918;37.746;2023-07-24T07:18:40;3.30;;;2.08;;
23317;SDS011;11831;55.918;37.746;2023-07-24T07:21:06;4.10;;;2.35;;
23317;SDS011;11831;55.918;37.746;2023-07-24T07:23:32;2.30;;;1.98;;
23317;SDS011;11831;55.918;37.746;2023-07-24T07:25:58;3.75;;;2.47;;
23317;SDS011;11831;55.918;37.746;2023-07-24T07:28:25;5.53;;;2.40;;
23317;SDS011;11831;55.918;37.746;2023-07-24T07:30:51;2.60;;;2.20;;
23317;SDS011;11831;55.918;37.746;2023-07-24T07:33:17;6.57;;;2.45;;
23317;SDS011;11831;55.918;37.746;2023-07-24T07:35:44;6.60;;;2.20;;
23317;SDS011;11831;55.918;37.746;2023-07-24T07:38:10;4.85;;;2.15;;
23317;SDS011;11831;55.918;37.746;2023-07-24T07:40:36;5.60;;;2.50;;
23317;SDS011;11831;55.918;37.746;2023-07-24T07:43:04;1.80;;;1.70;;
23317;SDS011;11831;55.918;37.746;2023-07-24T07:45:30;4.78;;;2.28;;
23317;SDS011;11831;55.918;37.746;2023-07-24T07:47:57;2.78;;;2.05;;
23317;SDS011;11831;55.918;37.746;2023-07-24T07:50:23;2.42;;;2.12;;
23317;SDS011;11831;55.918;37.746;2023-07-24T07:52:50;3.83;;;2.10;;
23317;SDS011;11831;55.918;37.746;2023-07-24T07:55:17;3.70;;;2.12;;
23317;SDS011;11831;55.918;37.746;2023-07-24T07:57:45;4.60;;;2.40;;
23317;SDS011;11831;55.918;37.746;2023-07-24T08:00:12;3.15;;;1.70;;
23317;SDS011;11831;55.918;37.746;2023-07-24T08:02:38;1.95;;;1.60;;
23317;SDS011;11831;55.918;37.746;2023-07-24T08:05:07;2.15;;;1.55;;
23317;SDS011;11831;55.918;37.746;2023-07-24T08:07:34;2.92;;;1.60;;
23317;SDS011;11831;55.918;37.746;2023-07-24T08:10:01;2.47;;;1.67;;
23317;SDS011;11831;55.918;37.746;2023-07-24T08:12:31;2.75;;;2.42;;
23317;SDS011;11831;55.918;37.746;2023-07-24T08:14:57;3.85;;;2.65;;
23317;SDS011;11831;55.918;37.746;2023-07-24T08:17:24;2.47;;;2.17;;
23317;SDS011;11831;55.918;37.746;2023-07-24T08:19:50;4.10;;;1.90;;
23317;SDS011;11831;55.918;37.746;2023-07-24T08:22:17;5.07;;;1.80;;
23317;SDS011;11831;55.918;37.746;2023-07-24T08:24:45;6.87;;;5.35;;
23317;SDS011;11831;55.918;37.746;2023-07-24T08:27:13;5.57;;;4.18;;
23317;SDS011;11831;55.918;37.746;2023-07-24T08:29:39;5.22;;;2.10;;
23317;SDS011;11831;55.918;37.746;2023-07-24T08:32:05;5.40;;;3.37;;
23317;SDS011;11831;55.918;37.746;2023-07-24T08:34:32;4.70;;;2.30;;
23317;SDS011;11831;55.918;37.746;2023-07-24T08:36:58;3.90;;;2.00;;
23317;SDS011;11831;55.918;37.746;2023-07-24T08:39:24;2.20;;;2.00;;
23317;SDS011;11831;55.918;37.746;2023-07-24T08:41:51;3.20;;;2.28;;
23317;SDS011;11831;55.918;37.746;2023-07-24T08:44:17;4.70;;;2.30;;
23317;SDS011;11831;55.918;37.746;2023-07-24T08:46:44;3.30;;;2.22;;
23317;SDS011;11831;55.918;37.746;2023-07-24T08:49:12;3.35;;;2.22;;
23317;SDS011;11831;55.918;37.746;2023-07-24T08:51:40;4.03;;;2.03;;
23317;SDS011;11831;55.918;37.746;2023-07-24T08:54:07;3.60;;;2.00;;
23317;SDS011;11831;55.918;37.746;2023-07-24T08:56:35;4.35;;;2.20;;
23317;SDS011;11831;55.918;37.746;2023-07-24T08:59:03;3.12;;;1.90;;
23317;SDS011;11831;55.918;37.746;2023-07-24T09:01:29;4.28;;;2.28;;
23317;SDS011;11831;55.918;37.746;2023-07-24T09:03:56;3.28;;;2.50;;
23317;SDS011;11831;55.918;37.746;2023-07-24T09:06:22;2.90;;;1.95;;
23317;SDS011;11831;55.918;37.746;2023-07-24T09:08:53;2.25;;;1.98;;
23317;SDS011;11831;55.918;37.746;2023-07-24T09:11:20;5.43;;;2.50;;
23317;SDS011;11831;55.918;37.746;2023-07-24T09:13:46;4.93;;;2.20;;
23317;SDS011;11831;55.918;37.746;2023-07-24T09:16:23;2.97;;;2.53;;
23317;SDS011;11831;55.918;37.746;2023-07-24T09:18:51;3.58;;;2.60;;
23317;SDS011;11831;55.918;37.746;2023-07-24T09:21:31;4.32;;;2.78;;
23317;SDS011;11831;55.918;37.746;2023-07-24T09:24:08;4.00;;;2.83;;
23317;SDS011;11831;55.918;37.746;2023-07-24T09:26:51;7.70;;;3.47;;
23317;SDS011;11831;55.918;37.746;2023-07-24T09:29:19;3.75;;;2.83;;
23317;SDS011;11831;55.918;37.746;2023-07-24T09:31:46;4.35;;;3.00;;
23317;SDS011;11831;55.918;37.746;2023-07-24T09:34:16;3.15;;;2.60;;
23317;SDS011;11831;55.918;37.746;2023-07-24T09:36:43;4.85;;;3.10;;
23317;SDS011;11831;55.918;37.746;2023-07-24T09:39:10;3.97;;;3.15;;
23317;SDS011;11831;55.918;37.746;2023-07-24T09:41:38;7.25;;;3.50;;
23317;SDS011;11831;55.918;37.746;2023-07-24T09:44:06;4.05;;;3.22;;
23317;SDS011;11831;55.918;37.746;2023-07-24T09:46:33;4.65;;;3.33;;
23317;SDS011;11831;55.918;37.746;2023-07-24T09:48:59;5.85;;;3.25;;
23317;SDS011;11831;55.918;37.746;2023-07-24T09:51:28;7.60;;;4.18;;
23317;SDS011;11831;55.918;37.746;2023-07-24T09:53:56;6.30;;;3.70;;
23317;SDS011;11831;55.918;37.746;2023-07-24T09:56:27;8.27;;;4.57;;
23317;SDS011;11831;55.918;37.746;2023-07-24T09:58:55;8.85;;;4.32;;
23317;SDS011;11831;55.918;37.746;2023-07-24T10:01:23;7.53;;;4.43;;
23317;SDS011;11831;55.918;37.746;2023-07-24T10:03:50;6.72;;;4.32;;
23317;SDS011;11831;55.918;37.746;2023-07-24T10:06:17;8.07;;;4.28;;
23317;SDS011;11831;55.918;37.746;2023-07-24T10:08:44;5.43;;;4.45;;
23317;SDS011;11831;55.918;37.746;2023-07-24T10:11:12;5.25;;;4.22;;
23317;SDS011;11831;55.918;37.746;2023-07-24T10:13:40;5.07;;;4.22;;
23317;SDS011;11831;55.918;37.746;2023-07-24T10:16:07;6.07;;;4.55;;
23317;SDS011;11831;55.918;37.746;2023-07-24T10:18:34;19.23;;;17.27;;
23317;SDS011;11831;55.918;37.746;2023-07-24T10:23:29;5.72;;;4.12;;
23317;SDS011;11831;55.918;37.746;2023-07-24T10:25:55;6.32;;;4.95;;
23317;SDS011;11831;55.918;37.746;2023-07-24T10:28:34;8.15;;;5.30;;
23317;SDS011;11831;55.918;37.746;2023-07-24T10:31:27;5.90;;;4.90;;
23317;SDS011;11831;55.918;37.746;2023-07-24T10:33:53;6.00;;;4.60;;
23317;SDS011;11831;55.918;37.746;2023-07-24T10:36:22;10.20;;;4.57;;
23317;SDS011;11831;55.918;37.746;2023-07-24T10:38:54;8.07;;;4.47;;
23317;SDS011;11831;55.918;37.746;2023-07-24T10:43:48;5.37;;;4.10;;
23317;SDS011;11831;55.918;37.746;2023-07-24T10:46:18;8.70;;;3.92;;
23317;SDS011;11831;55.918;37.746;2023-07-24T10:48:50;6.60;;;3.97;;
23317;SDS011;11831;55.918;37.746;2023-07-24T10:51:17;5.00;;;3.67;;
23317;SDS011;11831;55.918;37.746;2023-07-24T10:53:44;4.37;;;3.42;;
23317;SDS011;11831;55.918;37.746;2023-07-24T10:56:12;6.85;;;4.10;;
23317;SDS011;11831;55.918;37.746;2023-07-24T10:58:39;7.20;;;4.20;;
23317;SDS011;11831;55.918;37.746;2023-07-24T11:01:06;5.15;;;4.07;;
23317;SDS011;11831;55.918;37.746;2023-07-24T11:03:39;7.07;;;4.07;;
23317;SDS011;11831;55.918;37.746;2023-07-24T11:06:17;6.18;;;3.58;;
23317;SDS011;11831;55.918;37.746;2023-07-24T11:08:51;5.20;;;3.55;;
23317;SDS011;11831;55.918;37.746;2023-07-24T11:11:19;7.18;;;3.83;;
23317;SDS011;11831;55.918;37.746;2023-07-24T11:13:45;3.87;;;3.47;;
23317;SDS011;11831;55.918;37.746;2023-07-24T11:16:11;5.20;;;3.35;;
23317;SDS011;11831;55.918;37.746;2023-07-24T11:18:47;5.65;;;3.70;;
23317;SDS011;11831;55.918;37.746;2023-07-24T11:21:15;7.60;;;3.67;;
23317;SDS011;11831;55.918;37.746;2023-07-24T11:23:46;6.22;;;3.60;;
23317;SDS011;11831;55.918;37.746;2023-07-24T11:26:13;4.07;;;3.75;;
23317;SDS011;11831;55.918;37.746;2023-07-24T11:28:40;7.03;;;4.30;;
23317;SDS011;11831;55.918;37.746;2023-07-24T11:31:06;5.60;;;4.25;;
23317;SDS011;11831;55.918;37.746;2023-07-24T11:33:33;6.20;;;4.07;;
23317;SDS011;11831;55.918;37.746;2023-07-24T11:36:00;9.05;;;6.85;;
23317;SDS011;11831;55.918;37.746;2023-07-24T11:38:26;7.78;;;4.60;;
23317;SDS011;11831;55.918;37.746;2023-07-24T11:40:53;7.35;;;4.43;;
23317;SDS011;11831;55.918;37.746;2023-07-24T11:43:22;8.60;;;4.93;;
23317;SDS011;11831;55.918;37.746;2023-07-24T11:45:50;7.37;;;4.72;;
23317;SDS011;11831;55.918;37.746;2023-07-24T11:48:20;5.75;;;4.50;;
23317;SDS011;11831;55.918;37.746;2023-07-24T11:50:48;7.97;;;5.00;;
23317;SDS011;11831;55.918;37.746;2023-07-24T11:53:22;5.40;;;4.10;;
23317;SDS011;11831;55.918;37.746;2023-07-24T11:55:57;8.20;;;4.12;;
23317;SDS011;11831;55.918;37.746;2023-07-24T11:58:28;5.45;;;4.45;;
23317;SDS011;11831;55.918;37.746;2023-07-24T12:00:55;7.32;;;5.15;;
23317;SDS011;11831;55.918;37.746;2023-07-24T12:03:26;5.28;;;4.78;;
23317;SDS011;11831;55.918;37.746;2023-07-24T12:05:54;5.90;;;5.30;;
23317;SDS011;11831;55.918;37.746;2023-07-24T12:08:21;5.78;;;5.20;;
23317;SDS011;11831;55.918;37.746;2023-07-24T12:10:55;5.87;;;5.28;;
23317;SDS011;11831;55.918;37.746;2023-07-24T12:13:21;7.50;;;5.50;;
23317;SDS011;11831;55.918;37.746;2023-07-24T12:15:48;7.70;;;5.70;;
23317;SDS011;11831;55.918;37.746;2023-07-24T12:18:15;7.37;;;6.18;;
23317;SDS011;11831;55.918;37.746;2023-07-24T12:20:41;8.18;;;5.70;;
23317;SDS011;11831;55.918;37.746;2023-07-24T12:23:07;7.60;;;5.87;;
23317;SDS011;11831;55.918;37.746;2023-07-24T12:25:34;7.57;;;6.00;;
23317;SDS011;11831;55.918;37.746;2023-07-24T12:28:00;6.82;;;5.75;;
23317;SDS011;11831;55.918;37.746;2023-07-24T12:30:27;8.20;;;5.75;;
23317;SDS011;11831;55.918;37.746;2023-07-24T12:32:53;7.32;;;5.93;;
23317;SDS011;11831;55.918;37.746;2023-07-24T12:35:20;11.43;;;6.40;;
23317;SDS011;11831;55.918;37.746;2023-07-24T12:37:46;7.90;;;5.75;;
23317;SDS011;11831;55.918;37.746;2023-07-24T12:40:13;8.07;;;6.18;;
23317;SDS011;11831;55.918;37.746;2023-07-24T12:42:39;6.72;;;5.82;;
23317;SDS011;11831;55.918;37.746;2023-07-24T12:45:05;8.90;;;6.37;;
23317;SDS011;11831;55.918;37.746;2023-07-24T12:47:33;9.85;;;6.25;;
23317;SDS011;11831;55.918;37.746;2023-07-24T12:50:00;7.78;;;5.57;;
23317;SDS011;11831;55.918;37.746;2023-07-24T12:52:30;6.30;;;5.70;;
23317;SDS011;11831;55.918;37.746;2023-07-24T12:54:57;6.72;;;5.10;;
23317;SDS011;11831;55.918;37.746;2023-07-24T12:57:23;6.32;;;5.55;;
23317;SDS011;11831;55.918;37.746;2023-07-24T12:59:52;6.68;;;5.53;;
23317;SDS011;11831;55.918;37.746;2023-07-24T13:02:19;8.73;;;5.97;;
23317;SDS011;11831;55.918;37.746;2023-07-24T13:04:45;5.90;;;4.72;;
23317;SDS011;11831;55.918;37.746;2023-07-24T13:07:12;5.62;;;5.10;;
23317;SDS011;11831;55.918;37.746;2023-07-24T13:09:38;7.87;;;5.55;;
23317;SDS011;11831;55.918;37.746;2023-07-24T13:12:04;8.60;;;6.22;;
23317;SDS011;11831;55.918;37.746;2023-07-24T13:14:31;7.50;;;6.10;;
23317;SDS011;11831;55.918;37.746;2023-07-24T13:16:58;8.63;;;5.95;;
23317;SDS011;11831;55.918;37.746;2023-07-24T13:19:24;7.93;;;6.00;;
23317;SDS011;11831;55.918;37.746;2023-07-24T13:21:50;8.18;;;5.57;;
23317;SDS011;11831;55.918;37.746;2023-07-24T13:24:17;5.57;;;5.03;;
23317;SDS011;11831;55.918;37.746;2023-07-24T13:26:43;8.93;;;6.45;;
23317;SDS011;11831;55.918;37.746;2023-07-24T13:29:09;6.55;;;4.97;;
23317;SDS011;11831;55.918;37.746;2023-07-24T13:31:36;7.43;;;4.90;;
23317;SDS011;11831;55.918;37.746;2023-07-24T13:34:02;6.50;;;5.53;;
23317;SDS011;11831;55.918;37.746;2023-07-24T13:36:29;5.37;;;4.87;;
23317;SDS011;11831;55.918;37.746;2023-07-24T13:38:55;8.05;;;5.07;;
23317;SDS011;11831;55.918;37.746;2023-07-24T13:41:21;8.88;;;5.53;;
23317;SDS011;11831;55.918;37.746;2023-07-24T13:43:48;6.00;;;5.18;;
23317;SDS011;11831;55.918;37.746;2023-07-24T13:46:14;7.20;;;5.22;;
23317;SDS011;11831;55.918;37.746;2023-07-24T13:48:41;6.72;;;4.82;;
23317;SDS011;11831;55.918;37.746;2023-07-24T13:51:07;6.82;;;5.12;;
23317;SDS011;11831;55.918;37.746;2023-07-24T13:53:33;7.45;;;5.62;;
23317;SDS011;11831;55.918;37.746;2023-07-24T13:56:00;8.50;;;5.35;;
23317;SDS011;11831;55.918;37.746;2023-07-24T13:58:27;6.50;;;5.70;;
23317;SDS011;11831;55.918;37.746;2023-07-24T14:00:53;7.32;;;5.60;;
23317;SDS011;11831;55.918;37.746;2023-07-24T14:03:19;8.48;;;5.60;;
23317;SDS011;11831;55.918;37.746;2023-07-24T14:05:46;7.32;;;5.12;;
23317;SDS011;11831;55.918;37.746;2023-07-24T14:08:12;5.75;;;4.97;;
23317;SDS011;11831;55.918;37.746;2023-07-24T14:10:38;7.18;;;5.25;;
23317;SDS011;11831;55.918;37.746;2023-07-24T14:13:05;6.30;;;4.95;;
23317;SDS011;11831;55.918;37.746;2023-07-24T14:15:31;6.28;;;5.25;;
23317;SDS011;11831;55.918;37.746;2023-07-24T14:17:57;5.47;;;4.62;;
23317;SDS011;11831;55.918;37.746;2023-07-24T14:20:24;7.47;;;5.15;;
23317;SDS011;11831;55.918;37.746;2023-07-24T14:22:50;5.95;;;4.78;;
23317;SDS011;11831;55.918;37.746;2023-07-24T14:25:16;7.12;;;4.65;;
23317;SDS011;11831;55.918;37.746;2023-07-24T14:27:43;7.65;;;5.12;;
23317;SDS011;11831;55.918;37.746;2023-07-24T14:30:09;8.30;;;4.93;;
23317;SDS011;11831;55.918;37.746;2023-07-24T14:32:36;8.13;;;5.05;;
23317;SDS011;11831;55.918;37.746;2023-07-24T14:35:03;6.40;;;4.62;;
23317;SDS011;11831;55.918;37.746;2023-07-24T14:37:29;7.12;;;5.18;;
23317;SDS011;11831;55.918;37.746;2023-07-24T14:39:56;6.25;;;4.57;;
23317;SDS011;11831;55.918;37.746;2023-07-24T14:42:23;5.05;;;4.50;;
23317;SDS011;11831;55.918;37.746;2023-07-24T14:44:49;5.65;;;5.03;;